AirNav   Air Wisconsin Up To $57,000 Bonus
 
 350 users online  

0KY1 Arnemann Farms Airport
Franklin, Kentucky, USA

GOING TO FRANKLIN?


FAA INFORMATION EFFECTIVE 26 MARCH 2020

Location

FAA Identifier: 0KY1
Lat/Long: 36-45-56.6000N 086-37-02.7700W
36-45.943333N 086-37.046167W
36.7657222,-86.6174361
(estimated)
Elevation: 696 ft. / 212 m (estimated)
Variation: 01W (1990)
From city: 3 miles NW of FRANKLIN, KY
Time zone: UTC -5 (UTC -6 during Standard Time)
Zip code: 42134

Airport Operations

Airport use: Private use. Permission required prior to landing
Activation date: 12/1992
Control tower: no
ARTCC: MEMPHIS CENTER
FSS: LOUISVILLE FLIGHT SERVICE STATION
Attendance: UNATNDD
Segmented circle: no

Airport Communications

WX AWOS-3 at 1M5 (12 nm SE): 118.175 (615-325-4971)
WX ASOS at BWG (15 nm NE): 127.825 (270-843-8136)

Nearby radio navigation aids

VOR radial/distance  VOR name  Freq  Var
BWGr219/12.9BOWLING GREEN VORTAC117.9002E
BNAr007/37.9NASHVILLE VORTAC114.1002W
CKVr078/39.2CLARKSVILLE VOR/DME110.6001W

 
NDB name  Hdg/Dist  Freq  Var  ID
NOORA228/9.523604WBW -... .--

Airport Services

Runway Information

Runway 10/28

Dimensions: 3200 x 75 ft. / 975 x 23 m
Surface: asphalt
RUNWAY 10  RUNWAY 28
Traffic pattern: leftleft

Airport Ownership and Management from official FAA records

Ownership: Privately-owned
Owner: JURGEN ARNEMANN
1895 BLACKJACK ROAD
FRANKLIN, KY 42134
Phone 270-586-5252
Manager: JURGEN ARNEMANN
1895 BLACKJACK ROAD
FRANKLIN, KY 42134
Phone 270-586-5252

Additional Remarks

FOR CD CTC MEMPHIS ARTCC AT 901-368-8453.

Instrument Procedures

There are no published instrument procedures at 0KY1.

Some nearby airports with instrument procedures:

4M7 - Russellville-Logan County Airport (10 nm W)
1M5 - Portland Municipal Airport (12 nm SE)
KBWG - Bowling Green-Warren County Regional Airport (15 nm NE)
M91 - Springfield Robertson County Airport (20 nm SW)
KXNX - Sumner County Regional Airport (26 nm SE)
 
Loc | Ops | Rwys | IFR | FBO | Links
Com | Nav | Svcs | Stats | Notes
Area around 0KY1 (Arnemann Farms Airport)
 
Road maps at: MapQuest Bing Google
 
Aerial photo
No photo
 
Sectional chart

 
Airport distance calculator
Flying to Arnemann Farms Airport? Find the distance to fly.

From to 0KY1

Sunrise and sunset
Times for 31-Mar-2020
 Local
(UTC-5)
 Zulu
(UTC)
Morning civil twilight06:0711:07
Sunrise06:3311:33
Sunset19:0700:07
Evening civil twilight19:3400:34

Current date and time
Zulu (UTC)  31-Mar-2020 07:23:17
Local (UTC-5)  31-Mar-2020 02:23:17
 
METAR
K1M5 
12nm SE 
310655Z AUTO 00000KT 10SM FEW055 OVC070 11/09 A3000 RMK A01
KBWG 
15nm NE 
310653Z AUTO 35003KT 10SM OVC100 13/02 A3002 RMK AO2 SLP162 T01330017
KM91 
20nm SW 
310655Z AUTO VRB05KT 10SM SCT033 BKN049 OVC060 12/04 A2999 RMK A01
TAF
KBWG 
15nm NE 
310520Z 3106/0106 00000KT P6SM OVC130 FM310800 00000KT P6SM -RA OVC050 FM311300 05005KT 6SM -RA OVC027 FM311600 01007KT 5SM -RA OVC017 FM312100 34006KT P6SM OVC045
NOTAMs
Click for the latest NOTAMs
NOTAMs are issued by the DoD/FAA and will open in a separate window not controlled by AirNav.

 

 
 

Would you like to see your business listed on this page?

 If your business provides an interesting product or service to pilots, flight crews, aircraft, or users of the Arnemann Farms Airport, you should consider listing it here.  To start the listing process, click on the button below
 
Add a business
 

Other Pages about Arnemann Farms Airport

Update a link
 
Copyright © AirNav, LLC. All rights reserved. Privacy Policy  Contact